x

West Bermuda - 240 Nm West Of Bermuda (41048) Wave Buoy

2:50am - Fri 27th Feb 2015 All times are UTC.

  • Sig Wave height 9.8ft
  • Swell Direction
  • Peak Period 8s
  • Average Period 6s
  • Wind
    27mph, 34mph gusts
  • Sea Temp 68°f
  • Air Temp 71°f
  • Sea Pressure 1013.5mb

More Historic Weather Station data

Upgrade to MSW Pro to gain access to the past 30 days of data for over 8000 Wavebouys and Weather Stations around the globe.

Join Pro

Comparision Forecast

View Surf forecast
   
Fri 02/27 2:50am 10ft 8s 6s 27 34 mph 1013.5mb 68f 71f
1:50am 10.5ft 8s 7s 27 31 mph 1013.4mb 68f 71f
12:50am 10ft 8s 6s 27 31 mph 1013mb 68f 71f
Thu 02/26 11:50pm 10ft 7s 6s 27 34 mph 1012.5mb 68f 71f
10:50pm 11ft 8s 7s 27 31 mph 1011.7mb 68f 71f
9:50pm 11ft 8s 7s 27 34 mph 1011.6mb 68f 71f
8:50pm 11.5ft 8s 7s 29 36 mph 1010.8mb 68f 71f
7:50pm 10.5ft 8s 6s 31 38 mph 1010mb 68f 71f
6:50pm 10.5ft 8s 6s 31 36 mph 1010.4mb 68f 71f
5:50pm 10ft 8s 6s 29 38 mph 1011mb 68f 71f
4:50pm 10.5ft 7s 6s 29 34 mph 1011.5mb 68f 71f
3:50pm 9ft 7s 6s 29 38 mph 1011.8mb 68f 71f
2:50pm 8ft 8s 6s 27 34 mph 1011.9mb 67f 71f
1:50pm 8ft 8s 6s 27 34 mph 1011.5mb 67f 71f
12:50pm 7ft 8s 6s 25 31 mph 1011.6mb 67f 70f
11:50am 7ft 8s 6s 25 29 mph 1011.5mb 68f 70f
10:50am 8ft 8s 6s 20 25 mph 1012mb 68f 69f
9:50am 8ft 8s 7s 20 25 mph 1011.5mb 68f 69f
8:50am 7ft 9s 6s 20 25 mph 1011.7mb 68f 69f
7:50am 7.5ft 9s 6s 20 25 mph 1012mb 68f 68f
6:50am 7.5ft 9s 7s 18 22 mph 1012.8mb 68f 68f
5:50am 8.5ft 8s 7s 16 20 mph 1013.8mb 68f 67f
4:50am 8ft 8s 7s 13 16 mph 1014.8mb 68f 67f
3:50am 8ft 9s 7s 11 13 mph 1015.4mb 68f 67f
2:50am 8.5ft 9s 7s 9 11 mph 1015.7mb 68f 67f
1:50am 9ft 8s 7s 7 9 mph 1015.9mb 68f 66f
12:50am 9ft 9s 7s 7 9 mph 1015.6mb 68f 66f
Wed 02/25 11:50pm 10.5ft 9s 7s 9
mph
1015.3mb 68f 66f
10:50pm 11ft 9s 7s 9 13 mph 1015.3mb 68f 66f
9:50pm 11.5ft 9s 7s 13 16 mph 1014.6mb 68f 66f
8:50pm 11.5ft 9s 7s 16 18 mph 1013.8mb 68f 66f
7:50pm 12ft 10s 7s 18 22 mph 1013.4mb 68f 66f
6:50pm 12ft 10s 7s 20 22 mph 1012.7mb 68f 66f
5:50pm 12ft 8s 7s 18 25 mph 1012.2mb 68f 67f
4:50pm 11ft 8s 7s 18 22 mph 1013mb 68f 66f
3:50pm 11ft 8s 7s 22 27 mph 1012.6mb 68f 66f
2:50pm 12ft 8s 7s 22 27 mph 1012mb 68f 67f
1:50pm 10.5ft 8s 7s 20 27 mph 1011.3mb 68f 67f
12:50pm 11ft 7s 6s 22 29 mph 1010.1mb 68f 68f
11:50am 11ft 8s 6s 29 34 mph 1008.9mb 68f 68f
10:50am 9ft 7s 6s 29 36 mph 1007.8mb 68f 68f
9:50am 8ft 9s 6s 31 38 mph 1006mb 68f 68f
8:50am 7ft 9s 6s 36 45 mph 1004.8mb 68f 69f
7:50am 7ft 10s 6s 31 40 mph 1004.3mb 68f 69f
6:50am 8ft 10s 7s 20 27 mph 1004.9mb 68f 67f
5:50am 7.5ft 10s 7s 18 22 mph 1005mb 68f 67f
4:50am 8.5ft 10s 7s 16 20 mph 1007.7mb 68f 66f
3:50am 9ft 9s 7s 18 22 mph 1008.8mb 68f 66f
2:50am 9ft 10s 7s 22 27 mph 1010.1mb 68f 66f
1:50am 9.5ft 11s 7s 25 29 mph 1010.9mb 68f 65f
12:50am 13ft 10s 8s 22 27 mph 1012.1mb 68f 64f
Tue 02/24 11:50pm 10ft 10s 8s 20 25 mph 1013.2mb 68f 64f
10:50pm 11.5ft 10s 8s 16 20 mph 1014.3mb 68f 63f
9:50pm 12ft 10s 8s 18 20 mph 1014.2mb 68f 63f
8:50pm 12.5ft 11s 8s 13 18 mph 1014.4mb 68f 63f
7:50pm 11ft 11s 8s 13 16 mph 1015mb 68f 62f
6:50pm 14ft 10s 8s 13 16 mph 1015.5mb 68f 62f
5:50pm 12.5ft 11s 8s 16 20 mph 1015.9mb 68f 61f
4:50pm 12ft 11s 8s 16 20 mph 1016.8mb 68f 61f
3:50pm 13ft 11s 8s 18 20 mph 1017.9mb 68f 61f
2:50pm 14ft 11s 8s 25 27 mph 1017.1mb 68f 60f
1:50pm 13.5ft 10s 7s 20 25 mph 1017.5mb 68f 61f
12:50pm 10.5ft 8s 7s 25 29 mph 1016.9mb 68f 61f
11:50am 10.5ft 8s 6s 25 31 mph 1016.2mb 68f 61f
10:50am 9ft 7s 6s 29 36 mph 1015.1mb 68f 62f
9:50am 7.5ft 6s 5s 29 36 mph 1014mb 68f 61f
8:50am 7ft 10s 5s 31 40 mph 1013.4mb 68f 62f
7:50am 7ft 11s 6s 29 36 mph 1012.7mb 68f 64f
6:50am 7ft 6s 6s 20 27 mph 1012.3mb 68f 68f
5:50am 7ft 11s 6s 16 20 mph 1012.6mb 68f 68f
4:50am 7.5ft 6s 6s 20 27 mph 1012.7mb 68f 69f
3:50am 7ft 11s 6s 22 27 mph 1013.2mb 68f 69f
2:50am 7ft 10s 6s 22 25 mph 1013.7mb 68f 69f
1:50am 7.5ft 11s 6s 20 22 mph 1014.1mb 68f 69f
12:50am 7ft 11s 6s 20 27 mph 1014.2mb 68f 69f
Mon 02/23 11:50pm 7ft 10s 6s 22 27 mph 1014.1mb 68f 69f
10:50pm 6ft 11s 6s 22 27 mph 1014.1mb 68f 69f
9:50pm 6ft 11s 6s 22 29 mph 1014.6mb 69f 68f
8:50pm 6ft 10s 6s 22 29 mph 1014.6mb 69f 69f
7:50pm 6ft 11s 6s 22 25 mph 1015.5mb 69f 69f
6:50pm 5.5ft 11s 6s 20 22 mph 1016.4mb 69f 69f
5:50pm 5ft 10s 7s 18 20 mph 1017.7mb 69f 69f
4:50pm 5ft 10s 7s 16 18 mph 1019.3mb 69f 69f
3:50pm 5ft 11s 7s 16 18 mph 1020.4mb 69f 68f
2:50pm 5.5ft 10s 8s 13 16 mph 1021mb 69f 68f
1:50pm 5ft 10s 8s 11 13 mph 1022mb 68f 68f
12:50pm 5ft 11s 7s 9 11 mph 1022.5mb 68f 68f
11:50am 5ft 11s 8s 7 9 mph 1022.7mb 68f 67f
10:50am 5ft 10s 7s 11 13 mph 1022.8mb 68f 67f
9:50am 5ft 11s 7s 11 13 mph 1022.5mb 68f 67f
8:50am 5ft 10s 7s 11 13 mph 1022.3mb 68f 67f
7:50am 5ft 10s 7s 11 13 mph 1022.9mb 68f 67f
6:50am 4.5ft 11s 7s 11 13 mph 1023.7mb 68f 67f
5:50am 4.5ft 10s 7s 9 11 mph 1024.7mb 68f 67f
4:50am 5ft 10s 7s 9 11 mph 1025.4mb 68f 67f